Time;durP1;ratioP1;P1;durP2;ratioP2;P2;SDS_P1;SDS_P2;PMS_P1;PMS_P2;Temp;Humidity;BMP_temperature;BMP_pressure;BME280_temperature;BME280_humidity;BME280_pressure;Samples;Min_cycle;Max_cycle;Signal;HPM_P1;HPM_P2
2023/08/25 00:00:19;;;;;;;13.60;12.30;;;22.90;93.30;;;;;;10360794;28;20821;-65
2023/08/25 00:05:19;;;;;;;13.25;12.05;;;22.80;93.30;;;;;;10361276;28;21169;-66
2023/08/25 00:10:22;;;;;;;13.60;12.30;;;22.80;93.30;;;;;;10359199;28;20397;-64
2023/08/25 00:15:23;;;;;;;13.95;12.50;;;22.80;93.30;;;;;;10360868;28;20408;-65
2023/08/25 00:20:24;;;;;;;13.02;11.73;;;22.80;93.40;;;;;;10358162;28;20415;-65
2023/08/25 00:25:25;;;;;;;13.05;11.75;;;22.80;93.70;;;;;;10359219;28;20404;-65
2023/08/25 00:30:26;;;;;;;13.20;11.90;;;22.80;93.40;;;;;;10357774;28;20397;-65
2023/08/25 00:35:27;;;;;;;13.35;12.05;;;22.80;93.40;;;;;;10357738;28;20480;-65
2023/08/25 00:40:33;;;;;;;13.50;12.20;;;22.80;93.50;;;;;;10356775;28;20403;-65
2023/08/25 00:45:39;;;;;;;13.60;12.20;;;22.80;93.50;;;;;;10341009;28;20543;-64
2023/08/25 00:50:40;;;;;;;12.45;11.25;;;22.80;93.50;;;;;;10361820;28;20770;-65
2023/08/25 00:55:41;;;;;;;12.70;11.50;;;22.80;93.50;;;;;;10362297;28;20777;-65
2023/08/25 01:00:43;;;;;;;13.37;12.07;;;22.70;93.50;;;;;;10359963;28;20405;-65
2023/08/25 01:05:48;;;;;;;13.73;12.32;;;22.80;93.50;;;;;;10366502;28;20400;-65
2023/08/25 01:11:00;;;;;;;13.30;11.90;;;22.80;93.50;;;;;;10352267;28;20438;-65
2023/08/25 01:16:03;;;;;;;13.88;12.38;;;22.70;93.50;;;;;;10360691;28;20683;-65
2023/08/25 01:21:05;;;;;;;14.25;12.77;;;22.70;93.50;;;;;;10359471;28;20435;-65
2023/08/25 01:26:07;;;;;;;13.63;12.23;;;22.70;93.50;;;;;;10350662;28;20462;-65
2023/08/25 01:31:07;;;;;;;14.10;12.60;;;22.70;93.50;;;;;;10358722;28;20475;-63
2023/08/25 01:36:37;;;;;;;13.53;12.13;;;22.70;93.50;;;;;;10365145;28;20397;-66
2023/08/25 01:41:47;;;;;;;14.18;12.68;;;22.70;93.60;;;;;;10358860;28;20496;-66
2023/08/25 01:46:51;;;;;;;13.75;12.35;;;22.70;93.60;;;;;;10348725;28;20942;-65
2023/08/25 01:51:52;;;;;;;14.10;12.68;;;22.70;93.60;;;;;;10369347;28;20420;-66
2023/08/25 01:56:53;;;;;;;13.70;12.40;;;22.70;93.60;;;;;;10367165;28;20397;-64
2023/08/25 02:01:53;;;;;;;13.97;12.57;;;22.70;93.60;;;;;;10367572;28;20401;-65
2023/08/25 02:06:54;;;;;;;14.47;12.97;;;22.70;93.60;;;;;;10371792;28;20416;-65
2023/08/25 02:11:55;;;;;;;14.23;12.73;;;22.70;93.60;;;;;;10370953;28;20412;-66
2023/08/25 02:16:55;;;;;;;14.70;13.15;;;22.70;93.60;;;;;;10366507;28;20424;-65
2023/08/25 02:21:56;;;;;;;13.75;12.35;;;22.60;93.50;;;;;;10349841;28;20969;-66
2023/08/25 02:26:56;;;;;;;14.87;13.37;;;22.70;93.60;;;;;;10366754;28;20637;-64
2023/08/25 02:31:57;;;;;;;14.80;13.30;;;22.60;93.50;;;;;;10367788;28;20986;-64
2023/08/25 02:36:58;;;;;;;14.63;13.00;;;22.50;93.50;;;;;;10367515;28;20455;-66
2023/08/25 02:41:58;;;;;;;14.30;12.83;;;22.60;93.70;;;;;;10362266;28;20440;-66
2023/08/25 02:46:59;;;;;;;14.43;12.97;;;22.60;93.60;;;;;;10368899;28;20410;-66
2023/08/25 02:52:00;;;;;;;14.33;12.83;;;22.60;93.70;;;;;;10359275;28;20471;-65
2023/08/25 02:57:01;;;;;;;14.80;13.27;;;22.60;93.70;;;;;;10371474;28;20403;-64
2023/08/25 03:02:01;;;;;;;14.67;13.17;;;22.60;93.70;;;;;;10361605;28;20458;-65
2023/08/25 03:07:02;;;;;;;15.20;13.60;;;22.50;93.80;;;;;;10367282;28;20814;-65
2023/08/25 03:12:03;;;;;;;14.57;13.07;;;22.60;93.80;;;;;;10366383;28;20612;-62
2023/08/25 03:17:04;;;;;;;15.47;13.87;;;22.50;93.80;;;;;;10358454;28;20455;-65
2023/08/25 03:22:04;;;;;;;15.50;13.90;;;22.50;93.80;;;;;;10362870;28;20760;-64
2023/08/25 03:27:05;;;;;;;16.10;13.40;;;22.50;93.90;;;;;;10357958;28;20907;-66
2023/08/25 03:32:05;;;;;;;14.80;13.20;;;22.50;94.00;;;;;;10360872;28;20577;-65
2023/08/25 03:37:07;;;;;;;15.03;13.53;;;22.50;94.00;;;;;;10360920;28;20981;-65
2023/08/25 03:42:07;;;;;;;15.73;13.63;;;22.50;94.00;;;;;;10361223;28;20408;-65
2023/08/25 03:47:08;;;;;;;14.73;13.00;;;22.40;94.00;;;;;;10360998;28;20400;-65
2023/08/25 03:52:09;;;;;;;15.90;13.67;;;22.40;94.00;;;;;;10360188;28;20928;-65
2023/08/25 03:57:10;;;;;;;14.57;13.07;;;22.40;94.00;;;;;;10363336;28;20424;-64
2023/08/25 04:02:10;;;;;;;15.52;12.75;;;22.40;94.10;;;;;;10363007;28;20409;-65
2023/08/25 04:07:13;;;;;;;15.43;13.77;;;22.40;94.10;;;;;;10362596;28;20409;-65
2023/08/25 04:12:13;;;;;;;14.15;12.60;;;22.40;94.10;;;;;;10357984;28;20443;-66
2023/08/25 04:17:14;;;;;;;14.68;12.98;;;22.40;94.20;;;;;;10359363;28;20861;-63
2023/08/25 04:22:14;;;;;;;14.85;12.60;;;22.40;94.20;;;;;;10357478;28;20401;-66
2023/08/25 04:27:15;;;;;;;14.70;13.10;;;22.40;94.20;;;;;;10359843;28;20955;-66
2023/08/25 04:32:16;;;;;;;15.87;13.33;;;22.40;94.30;;;;;;10358067;28;20470;-65
2023/08/25 04:37:17;;;;;;;15.03;12.63;;;22.30;94.30;;;;;;10359732;28;20396;-66
2023/08/25 04:42:17;;;;;;;15.13;13.05;;;22.30;94.40;;;;;;10358620;28;20984;-64
2023/08/25 04:47:18;;;;;;;14.18;12.30;;;22.30;94.40;;;;;;10360217;28;20408;-65
2023/08/25 04:52:20;;;;;;;18.17;14.50;;;22.30;94.40;;;;;;10359872;28;20405;-65
2023/08/25 04:57:21;;;;;;;14.87;13.17;;;22.30;94.80;;;;;;10358343;28;21066;-66
2023/08/25 05:02:22;;;;;;;13.83;12.17;;;22.20;94.70;;;;;;10358548;28;20466;-65
2023/08/25 05:07:23;;;;;;;14.77;13.03;;;22.20;94.50;;;;;;10357532;28;20542;-65
2023/08/25 05:12:23;;;;;;;14.93;12.70;;;22.20;94.70;;;;;;10359258;28;20495;-65
2023/08/25 05:17:24;;;;;;;16.10;13.13;;;22.20;94.70;;;;;;10360090;28;20397;-66
2023/08/25 05:22:25;;;;;;;15.75;12.98;;;22.20;94.70;;;;;;10359059;28;20412;-64
2023/08/25 05:27:25;;;;;;;16.60;12.80;;;22.30;94.70;;;;;;10357200;28;20512;-65
2023/08/25 05:32:26;;;;;;;14.27;12.07;;;22.20;94.70;;;;;;10355214;28;20409;-66
2023/08/25 05:37:27;;;;;;;13.90;12.13;;;22.30;94.70;;;;;;10358577;28;20730;-66
2023/08/25 05:42:27;;;;;;;15.30;11.40;;;22.30;94.60;;;;;;10359287;28;20396;-66
2023/08/25 05:47:28;;;;;;;14.87;11.23;;;22.30;94.60;;;;;;10360073;28;20392;-65
2023/08/25 05:52:29;;;;;;;13.97;11.70;;;22.30;94.50;;;;;;10358298;28;20447;-64
2023/08/25 05:57:29;;;;;;;13.83;12.33;;;22.30;94.50;;;;;;10356518;28;20449;-65
2023/08/25 06:02:30;;;;;;;12.60;11.13;;;22.30;94.40;;;;;;10338592;28;20503;-65
2023/08/25 06:07:30;;;;;;;14.03;10.90;;;22.30;94.40;;;;;;10355259;28;20420;-66
2023/08/25 06:12:31;;;;;;;13.83;11.23;;;22.30;94.40;;;;;;10352096;28;20404;-65
2023/08/25 06:17:32;;;;;;;13.53;11.33;;;22.30;94.40;;;;;;10355537;28;20829;-66
2023/08/25 06:22:32;;;;;;;13.88;11.60;;;22.20;94.40;;;;;;10354408;28;20409;-66
2023/08/25 06:27:33;;;;;;;13.45;11.10;;;22.30;94.40;;;;;;10360574;28;20962;-65
2023/08/25 06:32:33;;;;;;;13.18;11.15;;;22.30;94.40;;;;;;10362438;28;20417;-65
2023/08/25 06:37:34;;;;;;;13.93;11.13;;;22.20;94.40;;;;;;10345652;28;20968;-64
2023/08/25 06:42:35;;;;;;;14.63;12.05;;;22.30;94.60;;;;;;10351506;28;20404;-65
2023/08/25 06:47:36;;;;;;;15.82;12.35;;;22.30;94.60;;;;;;10364069;28;20904;-66
2023/08/25 06:52:36;;;;;;;13.40;11.50;;;22.30;94.60;;;;;;10360841;28;20419;-65
2023/08/25 06:57:37;;;;;;;13.27;10.80;;;22.20;94.50;;;;;;10363767;28;20900;-65
2023/08/25 07:02:40;;;;;;;14.87;11.47;;;22.30;94.50;;;;;;10350463;28;20417;-65
2023/08/25 07:07:42;;;;;;;13.43;11.15;;;22.30;94.50;;;;;;10373888;28;20923;-64
2023/08/25 07:12:43;;;;;;;14.37;11.50;;;22.30;94.50;;;;;;10352476;28;20415;-65
2023/08/25 07:17:43;;;;;;;13.93;11.60;;;22.30;94.40;;;;;;10341625;28;20908;-65
2023/08/25 07:22:45;;;;;;;14.70;11.67;;;22.30;94.50;;;;;;10362805;28;20452;-65
2023/08/25 07:27:46;;;;;;;15.00;13.02;;;22.30;94.50;;;;;;10348361;28;20408;-64
2023/08/25 07:32:50;;;;;;;16.20;13.17;;;22.40;94.80;;;;;;10365261;28;20447;-63
2023/08/25 07:37:53;;;;;;;15.27;12.35;;;22.40;94.70;;;;;;10354883;28;20414;-66
2023/08/25 07:43:00;;;;;;;15.00;12.18;;;22.50;94.70;;;;;;10359012;28;20411;-65
2023/08/25 07:48:01;;;;;;;16.03;12.20;;;22.60;94.60;;;;;;10365215;28;20414;-65
2023/08/25 07:53:02;;;;;;;15.10;12.33;;;22.60;94.70;;;;;;10366256;28;20423;-66
2023/08/25 07:58:03;;;;;;;15.53;12.13;;;22.60;94.70;;;;;;10345961;28;20404;-66
2023/08/25 08:03:05;;;;;;;14.20;11.50;;;22.60;94.70;;;;;;10342877;28;20409;-66
2023/08/25 08:08:09;;;;;;;13.70;12.10;;;22.60;94.60;;;;;;10357948;28;20750;-66
2023/08/25 08:13:10;;;;;;;14.27;11.63;;;22.60;94.60;;;;;;10352925;28;20511;-65
2023/08/25 08:18:10;;;;;;;14.43;11.32;;;22.60;94.50;;;;;;10357487;28;20401;-65
2023/08/25 08:23:11;;;;;;;14.60;12.00;;;22.60;94.50;;;;;;10354176;28;20523;-65
2023/08/25 08:28:12;;;;;;;14.77;11.93;;;22.60;94.50;;;;;;10363961;28;20420;-66
2023/08/25 08:33:12;;;;;;;20.53;11.80;;;22.60;94.50;;;;;;10346616;28;20431;-67
2023/08/25 08:38:13;;;;;;;16.23;11.30;;;22.60;95.00;;;;;;10361105;28;20904;-64
2023/08/25 08:43:15;;;;;;;15.40;11.40;;;22.60;95.10;;;;;;10364357;28;20405;-65
2023/08/25 08:48:16;;;;;;;15.07;11.32;;;22.60;95.10;;;;;;10360866;28;20419;-66
2023/08/25 08:53:18;;;;;;;14.03;11.50;;;22.60;95.10;;;;;;10361268;28;20788;-65
2023/08/25 08:58:20;;;;;;;14.63;11.43;;;22.20;94.90;;;;;;10357030;28;20400;-65
2023/08/25 09:03:23;;;;;;;14.93;11.27;;;22.50;94.90;;;;;;10360499;28;20429;-65
2023/08/25 09:08:25;;;;;;;14.57;11.38;;;22.60;94.80;;;;;;10359199;28;20400;-65
2023/08/25 09:13:25;;;;;;;14.27;11.48;;;22.60;94.80;;;;;;10361428;28;20848;-64
2023/08/25 09:18:36;;;;;;;14.33;11.43;;;22.60;94.80;;;;;;10357410;28;20497;-65
2023/08/25 09:23:54;;;;;;;13.93;11.82;;;22.60;94.80;;;;;;10336822;28;20832;-66
2023/08/25 09:28:58;;;;;;;14.63;11.52;;;22.60;94.70;;;;;;10358763;28;20403;-66
2023/08/25 09:34:01;;;;;;;14.85;11.80;;;22.60;94.70;;;;;;10359217;28;20774;-65
2023/08/25 09:39:02;;;;;;;14.98;11.95;;;22.60;94.60;;;;;;10357957;28;20415;-65
2023/08/25 09:44:03;;;;;;;14.32;12.00;;;22.60;94.60;;;;;;10360274;28;20412;-66
2023/08/25 09:49:09;;;;;;;15.63;11.88;;;22.70;94.60;;;;;;10358367;28;20409;-65
2023/08/25 09:54:17;;;;;;;16.40;11.85;;;22.60;94.50;;;;;;10361361;28;20550;-65
2023/08/25 09:59:18;;;;;;;16.55;12.63;;;22.60;94.50;;;;;;10357662;28;20412;-65
2023/08/25 10:04:19;;;;;;;16.13;12.02;;;22.80;94.60;;;;;;10364140;28;20412;-66
2023/08/25 10:09:21;;;;;;;15.27;12.18;;;22.70;94.60;;;;;;10368680;28;20467;-66
2023/08/25 10:14:24;;;;;;;14.67;11.87;;;22.60;94.50;;;;;;10365210;28;20466;-66
2023/08/25 10:19:28;;;;;;;14.43;11.95;;;22.70;94.40;;;;;;10353129;28;20845;-65
2023/08/25 10:24:31;;;;;;;16.52;12.25;;;22.70;94.30;;;;;;10363629;28;20424;-66
2023/08/25 10:29:32;;;;;;;14.73;12.52;;;22.80;94.30;;;;;;10365143;28;20463;-66
2023/08/25 10:34:34;;;;;;;15.60;12.88;;;22.80;94.30;;;;;;10361481;28;20414;-65
2023/08/25 10:40:12;;;;;;;15.57;12.10;;;22.70;94.30;;;;;;10363041;28;20495;-66
2023/08/25 10:45:13;;;;;;;16.13;12.55;;;22.70;94.40;;;;;;10345620;28;20646;-66
2023/08/25 10:50:20;;;;;;;18.35;14.45;;;22.70;95.00;;;;;;10355857;28;20482;-65
2023/08/25 10:55:25;;;;;;;15.90;12.98;;;22.70;95.00;;;;;;10359970;28;20416;-67
2023/08/25 11:00:29;;;;;;;14.97;12.80;;;22.70;95.10;;;;;;10343370;28;20404;-68
2023/08/25 11:05:36;;;;;;;17.37;13.90;;;22.70;95.10;;;;;;10358364;28;20401;-67
2023/08/25 11:10:37;;;;;;;17.33;13.80;;;22.70;95.50;;;;;;10370148;28;20410;-67
2023/08/25 11:15:38;;;;;;;18.33;12.70;;;22.70;95.80;;;;;;10347255;28;20439;-66
2023/08/25 11:20:45;;;;;;;16.70;12.93;;;22.70;95.80;;;;;;10369318;28;20784;-67
2023/08/25 11:25:46;;;;;;;16.53;11.90;;;22.70;95.70;;;;;;10359931;28;20412;-66
2023/08/25 11:30:47;;;;;;;16.30;12.63;;;22.70;95.80;;;;;;10359782;28;20415;-67
2023/08/25 11:35:47;;;;;;;14.75;12.40;;;22.80;95.40;;;;;;10367706;28;20405;-66
2023/08/25 11:40:48;;;;;;;14.35;11.77;;;22.80;95.30;;;;;;10364306;28;20844;-66
2023/08/25 11:45:49;;;;;;;14.20;11.97;;;22.80;95.30;;;;;;10366466;28;20808;-66
2023/08/25 11:50:50;;;;;;;15.47;12.47;;;22.80;95.30;;;;;;10360967;28;20473;-65
2023/08/25 11:56:16;;;;;;;15.77;12.40;;;22.80;95.50;;;;;;10360962;28;20975;-67
2023/08/25 12:01:17;;;;;;;14.30;11.93;;;22.80;95.20;;;;;;10362199;28;20404;-67
2023/08/25 12:06:17;;;;;;;15.13;12.07;;;22.80;95.10;;;;;;10356741;28;20814;-67
2023/08/25 12:11:18;;;;;;;15.57;12.10;;;22.80;95.00;;;;;;10359543;28;20407;-68
2023/08/25 12:16:19;;;;;;;15.17;12.60;;;22.80;95.10;;;;;;10366125;28;20669;-68
2023/08/25 12:21:19;;;;;;;14.97;12.27;;;22.80;95.00;;;;;;10359164;28;20934;-67
2023/08/25 12:26:21;;;;;;;13.77;11.48;;;22.90;95.20;;;;;;10362531;28;20399;-68
2023/08/25 12:31:21;;;;;;;19.98;13.90;;;22.80;95.00;;;;;;10357412;28;20685;-71
2023/08/25 12:36:22;;;;;;;16.75;13.00;;;22.80;97.20;;;;;;10359760;28;20411;-67
2023/08/25 12:41:23;;;;;;;17.67;13.40;;;22.70;96.40;;;;;;10365029;28;20417;-72
2023/08/25 12:46:24;;;;;;;17.73;13.47;;;22.70;96.30;;;;;;10360668;28;20409;-71
2023/08/25 12:51:24;;;;;;;17.00;13.07;;;22.70;96.20;;;;;;10358346;28;20424;-69
2023/08/25 12:56:25;;;;;;;19.30;13.80;;;22.70;96.60;;;;;;10362182;28;20481;-70
2023/08/25 13:01:26;;;;;;;18.42;13.23;;;22.70;96.80;;;;;;10357628;28;20512;-70
2023/08/25 13:06:27;;;;;;;18.63;12.93;;;22.70;96.70;;;;;;10355785;28;20419;-68
2023/08/25 13:11:31;;;;;;;18.45;13.70;;;22.70;96.80;;;;;;10357811;28;20427;-68
2023/08/25 13:16:31;;;;;;;17.15;12.93;;;22.70;97.70;;;;;;10357629;28;20413;-70
2023/08/25 13:21:32;;;;;;;17.90;13.98;;;22.70;97.20;;;;;;10358449;28;20431;-70
2023/08/25 13:26:32;;;;;;;17.55;13.75;;;22.70;97.70;;;;;;10360588;28;20440;-69
2023/08/25 13:31:33;;;;;;;15.60;12.20;;;22.90;97.80;;;;;;10358066;28;20495;-71
2023/08/25 13:36:34;;;;;;;16.33;12.67;;;22.70;97.50;;;;;;10359471;28;20400;-69
2023/08/25 13:41:34;;;;;;;17.90;13.73;;;22.70;97.50;;;;;;10366108;28;20411;-71
2023/08/25 13:46:35;;;;;;;16.07;12.63;;;22.70;97.70;;;;;;10363753;28;20410;-70
2023/08/25 13:51:36;;;;;;;16.97;12.37;;;22.70;97.60;;;;;;10367590;28;20418;-69
2023/08/25 13:56:36;;;;;;;15.63;11.10;;;22.80;97.50;;;;;;10360405;28;20413;-70
2023/08/25 14:01:37;;;;;;;14.15;11.52;;;22.80;97.70;;;;;;10362150;28;20804;-67
2023/08/25 14:06:38;;;;;;;14.65;11.15;;;22.80;97.40;;;;;;10364235;28;20417;-70
2023/08/25 14:11:38;;;;;;;14.13;11.25;;;22.90;97.20;;;;;;10363272;28;20413;-68
2023/08/25 14:16:39;;;;;;;13.52;10.23;;;22.90;97.30;;;;;;10365579;28;20416;-69
2023/08/25 14:21:40;;;;;;;11.93;9.70;;;22.90;97.40;;;;;;10363070;28;20550;-69
2023/08/25 14:26:40;;;;;;;11.90;10.07;;;22.90;97.70;;;;;;10364779;28;20408;-69
2023/08/25 14:31:41;;;;;;;11.93;9.35;;;23.00;97.00;;;;;;10346808;28;20420;-70
2023/08/25 14:36:42;;;;;;;12.87;9.40;;;23.00;97.30;;;;;;10363047;28;20396;-69
2023/08/25 14:41:43;;;;;;;10.23;8.63;;;23.10;97.50;;;;;;10351358;28;20462;-70
2023/08/25 14:46:43;;;;;;;11.27;8.33;;;23.20;97.20;;;;;;10363160;28;20515;-70
2023/08/25 14:51:44;;;;;;;10.30;7.93;;;23.30;97.00;;;;;;10348401;28;20467;-69
2023/08/25 14:56:46;;;;;;;10.05;7.70;;;23.40;96.70;;;;;;10362251;28;20924;-67
2023/08/25 15:01:52;;;;;;;8.73;7.78;;;23.40;96.50;;;;;;10361112;28;20401;-68
2023/08/25 15:06:53;;;;;;;9.80;7.45;;;23.40;96.30;;;;;;10358469;28;20415;-66
2023/08/25 15:11:53;;;;;;;9.88;7.80;;;23.40;96.50;;;;;;10358352;28;20417;-66
2023/08/25 15:16:54;;;;;;;8.40;6.33;;;23.40;96.30;;;;;;10361834;28;20397;-65
2023/08/25 15:21:54;;;;;;;8.67;7.00;;;23.30;96.90;;;;;;10358176;28;20405;-66
2023/08/25 15:26:55;;;;;;;9.43;7.03;;;23.30;96.80;;;;;;10342010;28;20766;-67
2023/08/25 15:31:56;;;;;;;8.03;6.70;;;23.30;96.90;;;;;;10344821;28;20424;-67
2023/08/25 15:36:56;;;;;;;7.90;6.40;;;23.30;97.20;;;;;;10359723;28;20548;-67
2023/08/25 15:41:57;;;;;;;8.70;6.40;;;23.40;97.60;;;;;;10359215;28;20478;-67
2023/08/25 15:46:58;;;;;;;7.15;6.00;;;23.30;97.50;;;;;;10353564;28;20408;-67
2023/08/25 15:51:59;;;;;;;7.10;6.35;;;23.30;97.60;;;;;;10359210;28;20503;-68
2023/08/25 15:57:00;;;;;;;7.80;5.93;;;23.30;97.60;;;;;;10339391;28;20821;-67
2023/08/25 16:02:02;;;;;;;7.38;6.30;;;23.30;97.90;;;;;;10359904;28;20900;-70
2023/08/25 16:07:02;;;;;;;7.97;5.60;;;23.40;97.60;;;;;;10360687;28;20412;-69
2023/08/25 16:12:03;;;;;;;7.33;5.30;;;23.40;97.70;;;;;;10357923;28;20417;-70
2023/08/25 16:17:04;;;;;;;8.67;6.00;;;23.40;97.70;;;;;;10348164;28;20416;-70
2023/08/25 16:22:05;;;;;;;6.50;5.53;;;23.40;97.80;;;;;;10344335;28;20492;-70
2023/08/25 16:27:05;;;;;;;8.80;6.93;;;23.40;97.80;;;;;;10358839;28;20431;-71
2023/08/25 16:32:06;;;;;;;8.40;6.53;;;23.30;98.00;;;;;;10358800;28;20467;-67
2023/08/25 16:37:07;;;;;;;9.43;6.77;;;23.30;98.00;;;;;;10354992;28;20431;-70
2023/08/25 16:42:07;;;;;;;11.43;8.83;;;23.30;98.20;;;;;;10352259;28;20412;-69
2023/08/25 16:47:08;;;;;;;14.90;10.70;;;23.20;98.30;;;;;;10348635;28;20603;-68
2023/08/25 16:52:09;;;;;;;16.98;10.65;;;23.20;98.50;;;;;;10357202;28;20419;-69
2023/08/25 16:57:09;;;;;;;16.15;10.82;;;23.10;98.60;;;;;;10356690;28;20491;-68
2023/08/25 17:02:10;;;;;;;15.27;10.87;;;23.10;98.70;;;;;;10354607;28;20412;-70
2023/08/25 17:07:14;;;;;;;18.63;12.63;;;23.10;98.60;;;;;;10352702;28;20523;-70
2023/08/25 17:12:14;;;;;;;14.53;10.93;;;23.10;98.70;;;;;;10360279;28;20542;-69
2023/08/25 17:17:15;;;;;;;18.30;12.87;;;23.10;98.60;;;;;;10342383;28;20411;-68
2023/08/25 17:22:16;;;;;;;16.50;11.90;;;23.10;98.60;;;;;;10354624;28;20420;-70
2023/08/25 17:27:16;;;;;;;16.70;11.80;;;23.00;98.60;;;;;;10358302;28;20409;-70
2023/08/25 17:32:17;;;;;;;16.73;12.03;;;23.00;98.60;;;;;;10341276;28;20574;-68
2023/08/25 17:37:17;;;;;;;16.80;10.93;;;23.00;98.50;;;;;;10356035;28;20388;-69
2023/08/25 17:42:18;;;;;;;18.90;12.13;;;23.00;98.40;;;;;;10356400;28;20396;-68
2023/08/25 17:47:19;;;;;;;19.98;12.38;;;23.10;98.40;;;;;;10353365;28;20924;-70
2023/08/25 17:52:19;;;;;;;16.03;12.07;;;23.00;98.30;;;;;;10352699;28;20412;-69
2023/08/25 17:57:20;;;;;;;16.27;12.37;;;23.00;98.10;;;;;;10350460;28;20408;-69
2023/08/25 18:02:21;;;;;;;15.00;11.40;;;23.00;98.10;;;;;;10335898;28;20916;-70
2023/08/25 18:07:21;;;;;;;15.53;11.50;;;23.00;98.00;;;;;;10358543;28;20408;-69
2023/08/25 18:12:22;;;;;;;16.77;12.03;;;23.00;98.00;;;;;;10355639;28;20408;-70
2023/08/25 18:17:22;;;;;;;16.67;12.35;;;23.00;97.90;;;;;;10353753;28;20771;-70
2023/08/25 18:22:23;;;;;;;15.70;12.13;;;23.00;98.20;;;;;;10358615;28;20408;-70
2023/08/25 18:27:24;;;;;;;19.83;12.85;;;23.00;97.80;;;;;;10362373;28;20419;-70
2023/08/25 18:32:25;;;;;;;16.25;12.30;;;23.00;97.90;;;;;;10364620;28;20824;-67
2023/08/25 18:37:25;;;;;;;18.17;12.43;;;22.90;97.90;;;;;;10362374;28;20400;-70
2023/08/25 18:42:26;;;;;;;18.07;12.87;;;22.90;98.00;;;;;;10363707;28;20413;-70
2023/08/25 18:47:27;;;;;;;18.40;12.43;;;22.90;97.90;;;;;;10367230;28;20411;-70
2023/08/25 18:52:27;;;;;;;17.17;12.67;;;22.90;98.10;;;;;;10360953;28;20443;-70
2023/08/25 18:57:28;;;;;;;18.67;12.83;;;22.90;97.90;;;;;;10360040;28;20429;-69
2023/08/25 19:02:29;;;;;;;14.93;11.83;;;22.90;97.80;;;;;;10358843;28;20480;-70
2023/08/25 19:07:31;;;;;;;16.30;11.90;;;22.90;97.80;;;;;;10347348;28;20885;-70
2023/08/25 19:12:32;;;;;;;16.98;12.40;;;22.80;97.70;;;;;;10355118;28;21031;-70
2023/08/25 19:17:33;;;;;;;16.60;12.20;;;22.80;97.70;;;;;;10357191;28;20394;-70
2023/08/25 19:22:33;;;;;;;17.40;12.63;;;22.80;97.70;;;;;;10357936;28;20852;-70
2023/08/25 19:27:35;;;;;;;17.50;12.05;;;22.80;97.70;;;;;;10356996;28;20806;-69
2023/08/25 19:32:35;;;;;;;17.57;13.33;;;22.80;97.60;;;;;;10343942;28;20465;-69
2023/08/25 19:37:36;;;;;;;17.20;12.40;;;22.80;97.60;;;;;;10348551;28;20393;-68
2023/08/25 19:42:37;;;;;;;15.97;12.17;;;22.80;97.60;;;;;;10359972;28;20833;-70
2023/08/25 19:47:37;;;;;;;17.03;12.40;;;22.80;97.60;;;;;;10344549;28;20724;-70
2023/08/25 19:52:39;;;;;;;19.60;13.07;;;22.70;97.60;;;;;;10358131;28;20944;-70
2023/08/25 19:57:41;;;;;;;18.92;13.30;;;22.70;97.70;;;;;;10356921;28;20432;-66
2023/08/25 20:02:42;;;;;;;17.63;12.43;;;22.70;97.80;;;;;;10351800;28;21654;-66
2023/08/25 20:07:43;;;;;;;17.73;13.27;;;22.70;97.70;;;;;;10353818;28;20482;-67
2023/08/25 20:12:44;;;;;;;16.47;12.33;;;22.70;97.70;;;;;;10355667;28;20401;-66
2023/08/25 20:17:44;;;;;;;16.17;12.03;;;22.70;97.60;;;;;;10351099;28;20601;-67
2023/08/25 20:22:46;;;;;;;15.37;11.83;;;22.70;97.60;;;;;;10351624;28;20955;-67
2023/08/25 20:27:47;;;;;;;16.83;12.55;;;22.60;97.50;;;;;;10350591;28;20499;-66
2023/08/25 20:32:47;;;;;;;17.73;12.37;;;22.60;97.50;;;;;;10354204;28;20417;-66
2023/08/25 20:37:48;;;;;;;16.00;11.90;;;22.60;97.50;;;;;;10354095;28;20495;-66
2023/08/25 20:42:49;;;;;;;15.53;11.70;;;22.60;97.50;;;;;;10354288;28;20404;-65
2023/08/25 20:47:49;;;;;;;14.10;11.63;;;22.60;97.50;;;;;;10353191;28;20480;-66
2023/08/25 20:52:50;;;;;;;15.57;11.93;;;22.60;97.50;;;;;;10354568;28;20420;-65
2023/08/25 20:57:50;;;;;;;12.95;10.50;;;22.60;97.50;;;;;;10348684;28;20474;-66
2023/08/25 21:02:51;;;;;;;14.45;11.07;;;22.60;97.40;;;;;;10354442;28;20773;-67
2023/08/25 21:07:52;;;;;;;13.80;10.87;;;22.60;97.50;;;;;;10350626;28;20413;-65
2023/08/25 21:12:52;;;;;;;13.80;10.73;;;22.60;97.40;;;;;;10349412;28;20652;-67
2023/08/25 21:17:53;;;;;;;12.70;10.10;;;22.50;97.40;;;;;;10351798;28;20472;-66
2023/08/25 21:22:53;;;;;;;14.27;10.80;;;22.50;97.40;;;;;;10351660;28;20455;-65
2023/08/25 21:27:54;;;;;;;12.87;10.47;;;22.50;97.40;;;;;;10348082;28;20416;-66
2023/08/25 21:32:55;;;;;;;11.70;9.80;;;22.50;97.30;;;;;;10352898;28;20771;-66
2023/08/25 21:37:56;;;;;;;13.60;10.60;;;22.50;97.30;;;;;;10346768;28;20499;-65
2023/08/25 21:42:56;;;;;;;12.98;9.93;;;22.50;97.30;;;;;;10351536;28;20412;-64
2023/08/25 21:47:57;;;;;;;13.00;9.90;;;22.50;97.30;;;;;;10350154;28;20405;-65
2023/08/25 21:52:58;;;;;;;13.93;10.37;;;22.40;97.30;;;;;;10349753;28;20412;-64
2023/08/25 21:57:58;;;;;;;12.75;9.65;;;22.40;97.20;;;;;;10347728;28;20975;-64
2023/08/25 22:02:59;;;;;;;11.10;9.07;;;22.40;97.20;;;;;;10348580;28;20412;-66
2023/08/25 22:08:00;;;;;;;11.80;9.52;;;22.40;97.20;;;;;;10370134;28;20404;-65
2023/08/25 22:13:00;;;;;;;10.48;8.70;;;22.40;97.40;;;;;;10361158;28;20420;-65
2023/08/25 22:18:01;;;;;;;11.15;8.90;;;22.40;97.10;;;;;;10363291;28;20432;-64
2023/08/25 22:23:02;;;;;;;11.75;8.95;;;22.40;97.10;;;;;;10357714;28;20408;-65
2023/08/25 22:28:03;;;;;;;10.75;8.40;;;22.40;97.00;;;;;;10357369;28;20463;-63
2023/08/25 22:33:03;;;;;;;10.20;8.20;;;22.40;97.00;;;;;;10370489;28;20416;-65
2023/08/25 22:38:04;;;;;;;10.65;8.10;;;22.40;97.00;;;;;;10365092;28;20415;-64
2023/08/25 22:43:04;;;;;;;9.68;7.60;;;22.30;96.90;;;;;;10364776;28;20400;-65
2023/08/25 22:48:07;;;;;;;9.65;7.28;;;22.30;96.80;;;;;;10369892;28;20421;-65
2023/08/25 22:53:07;;;;;;;9.73;7.68;;;22.30;96.80;;;;;;10370644;28;20412;-65
2023/08/25 22:58:08;;;;;;;8.07;7.03;;;22.30;96.80;;;;;;10364217;28;20400;-66
2023/08/25 23:03:09;;;;;;;8.32;7.00;;;22.30;96.70;;;;;;10368563;28;20419;-64
2023/08/25 23:08:09;;;;;;;8.38;6.60;;;22.20;96.60;;;;;;10366282;28;20501;-65
2023/08/25 23:13:10;;;;;;;8.60;6.80;;;22.20;96.60;;;;;;10365239;28;21101;-65
2023/08/25 23:18:11;;;;;;;8.73;7.00;;;22.20;96.60;;;;;;10365978;28;20498;-65
2023/08/25 23:23:11;;;;;;;8.05;6.20;;;22.20;96.60;;;;;;10358313;28;20411;-65
2023/08/25 23:28:13;;;;;;;8.07;6.50;;;22.20;96.50;;;;;;10350454;28;20930;-66
2023/08/25 23:33:13;;;;;;;7.83;5.93;;;22.10;96.50;;;;;;10366842;28;20421;-65
2023/08/25 23:38:14;;;;;;;8.57;5.70;;;22.10;96.50;;;;;;10364715;28;20884;-65
2023/08/25 23:43:15;;;;;;;7.70;6.20;;;22.10;96.40;;;;;;10363366;28;20412;-66
2023/08/25 23:48:15;;;;;;;7.90;5.83;;;22.10;96.40;;;;;;10349499;28;20804;-64
2023/08/25 23:53:16;;;;;;;7.43;5.67;;;22.10;96.30;;;;;;10362469;28;20447;-65
2023/08/25 23:58:17;;;;;;;8.53;5.83;;;22.10;96.30;;;;;;10363035;28;20759;-65
